createdAt,value
2023-04-24T00:01:35.113Z,99804.00
2023-04-24T00:06:37.686Z,99791.41
2023-04-24T00:11:41.181Z,99782.50
2023-04-24T00:16:42.977Z,99771.78
2023-04-24T00:21:45.126Z,99761.13
2023-04-24T00:26:48.430Z,99754.00
2023-04-24T00:31:50.209Z,99742.88
2023-04-24T00:36:51.912Z,99738.38
2023-04-24T00:41:55.061Z,99753.47
2023-04-24T00:46:57.683Z,99746.25
2023-04-24T00:51:59.507Z,99749.50
2023-04-24T00:57:03.758Z,99752.69
2023-04-24T01:02:05.501Z,99746.34
2023-04-24T01:07:07.553Z,99741.81
2023-04-24T01:12:10.694Z,99737.38
2023-04-24T01:17:12.452Z,99736.63
2023-04-24T01:22:17.193Z,99721.69
2023-04-24T01:27:19.182Z,99726.16
2023-04-24T01:32:21.032Z,99734.06
2023-04-24T01:37:24.126Z,99714.66
2023-04-24T01:42:26.408Z,99706.84
2023-04-24T01:47:28.728Z,99713.16
2023-04-24T01:52:31.825Z,99717.81
2023-04-24T01:57:34.753Z,99721.50
2023-04-24T02:02:36.707Z,99704.09
2023-04-24T02:07:40.363Z,99709.47
2023-04-24T02:12:43.121Z,99688.53
2023-04-24T02:17:44.844Z,99693.06
2023-04-24T02:22:48.363Z,99698.44
2023-04-24T02:27:50.105Z,99706.38
2023-04-24T02:32:51.888Z,99704.59
2023-04-24T02:37:54.953Z,99702.38
2023-04-24T02:42:56.787Z,99690.22
2023-04-24T02:47:58.613Z,99688.97
2023-04-24T02:53:01.764Z,99682.72
2023-04-24T02:58:03.684Z,99700.19
2023-04-24T03:03:06.293Z,99688.38
2023-04-24T03:08:10.132Z,99692.63
2023-04-24T03:13:11.966Z,99696.22
2023-04-24T03:18:13.679Z,99692.63
2023-04-24T03:23:17.221Z,99688.97
2023-04-24T03:28:19.345Z,99696.91
2023-04-24T03:33:21.495Z,99689.81
2023-04-24T03:38:24.974Z,99697.50
2023-04-24T03:43:26.889Z,99698.94
2023-04-24T03:48:28.992Z,99700.44
2023-04-24T03:53:32.477Z,99690.78
2023-04-24T03:58:34.389Z,99689.13
2023-04-24T04:03:36.409Z,99695.72
2023-04-24T04:08:39.646Z,99687.78
2023-04-24T04:13:41.895Z,99691.38
2023-04-24T04:18:43.856Z,99694.91
2023-04-24T04:23:47.384Z,99700.22
2023-04-24T04:28:49.105Z,99705.34
2023-04-24T04:33:51.287Z,99707.75
2023-04-24T04:38:54.747Z,99704.84
2023-04-24T04:43:57.153Z,99712.56
2023-04-24T04:48:59.093Z,99710.38
2023-04-24T04:54:02.925Z,99716.22
2023-04-24T04:59:05.240Z,99724.03
2023-04-24T05:04:07.703Z,99726.47
2023-04-24T05:09:11.116Z,99727.00
2023-04-24T05:14:13.282Z,99732.81
2023-04-24T05:19:15.678Z,99727.56
2023-04-24T05:24:19.387Z,99738.75
2023-04-24T05:29:21.606Z,99740.47
2023-04-24T05:34:23.709Z,99744.38
2023-04-24T05:39:26.843Z,99741.13
2023-04-24T05:44:28.846Z,99753.41
2023-04-24T05:49:30.696Z,99747.41
2023-04-24T05:54:33.969Z,99751.00
2023-04-24T05:59:38.645Z,99760.09
2023-04-24T06:04:41.172Z,99767.56
2023-04-24T06:09:44.729Z,99770.22
2023-04-24T06:14:46.832Z,99773.44
2023-04-24T06:19:48.951Z,99770.25
2023-04-24T06:24:52.446Z,99776.06
2023-04-24T06:29:54.601Z,99777.66
2023-04-24T06:34:57.966Z,99786.13
2023-04-24T06:40:02.608Z,99765.78
2023-04-24T06:45:05.069Z,99756.78
2023-04-24T06:50:07.723Z,99768.03
2023-04-24T06:55:11.413Z,99768.47
2023-04-24T07:00:14.866Z,99770.22
2023-04-24T07:05:17.012Z,99774.66
2023-04-24T07:10:20.250Z,99770.81
2023-04-24T07:15:22.501Z,99770.81
2023-04-24T07:20:24.783Z,99780.94
2023-04-24T07:25:27.929Z,99772.03
2023-04-24T07:30:29.602Z,99765.31
2023-04-24T07:35:31.359Z,99761.94
2023-04-24T07:40:34.801Z,99756.41
2023-04-24T07:45:36.990Z,99761.22
2023-04-24T07:50:39.074Z,99744.78
2023-04-24T07:55:42.497Z,99744.13
2023-04-24T08:00:44.448Z,99758.13
2023-04-24T08:05:46.456Z,99759.28
2023-04-24T08:10:50.117Z,99764.63
2023-04-24T08:15:52.283Z,99766.34
2023-04-24T08:20:54.244Z,99764.25
2023-04-24T08:25:57.625Z,99758.94
2023-04-24T08:30:59.679Z,99760.03
2023-04-24T08:36:02.018Z,99762.72
2023-04-24T08:41:06.182Z,99762.75
2023-04-24T08:46:11.907Z,99758.22
2023-04-24T08:51:14.363Z,99770.34
2023-04-24T08:56:17.628Z,99772.88
2023-04-24T09:01:21.519Z,99770.78
2023-04-24T09:06:24.694Z,99767.63
2023-04-24T09:11:28.473Z,99764.25
2023-04-24T09:16:30.925Z,99768.81
2023-04-24T09:21:34.034Z,99776.34
2023-04-24T09:26:37.861Z,99769.94
2023-04-24T09:31:40.076Z,99775.66
2023-04-24T09:36:43.987Z,99780.22
2023-04-24T09:41:48.140Z,99776.63
2023-04-24T09:46:52.304Z,99766.78
2023-04-24T09:52:04.340Z,99772.69
2023-04-24T09:57:09.173Z,99775.72
2023-04-24T10:02:19.092Z,99768.13
2023-04-24T10:07:21.421Z,99760.75
2023-04-24T10:12:26.215Z,99763.44
2023-04-24T10:17:29.769Z,99768.22
2023-04-24T10:22:32.453Z,99763.00
2023-04-24T10:27:37.089Z,99759.75
2023-04-24T10:32:39.177Z,99754.72
2023-04-24T10:37:45.030Z,99763.69
2023-04-24T10:42:52.952Z,99747.22
2023-04-24T10:47:59.255Z,99751.22
2023-04-24T10:53:08.083Z,99733.97
2023-04-24T10:58:12.089Z,99740.13
2023-04-24T11:03:29.282Z,99750.00
2023-04-24T11:08:34.452Z,99743.09
2023-04-24T11:14:11.808Z,99746.84
2023-04-24T11:19:23.602Z,99738.63
2023-04-24T11:24:31.025Z,99740.34
2023-04-24T11:29:45.352Z,99741.56
2023-04-24T11:34:49.174Z,99737.84
2023-04-24T11:39:55.405Z,99730.94
2023-04-24T11:44:59.144Z,99735.63
2023-04-24T11:50:02.512Z,99739.00
2023-04-24T11:55:05.814Z,99726.00
2023-04-24T12:00:16.547Z,99731.50
2023-04-24T12:05:23.247Z,99745.28
2023-04-24T12:10:27.843Z,99743.34
2023-04-24T12:15:31.184Z,99744.63
2023-04-24T12:20:34.141Z,99749.19
2023-04-24T12:25:36.389Z,99748.47
2023-04-24T12:30:43.347Z,99741.69
2023-04-24T12:35:45.675Z,99745.19
2023-04-24T12:40:47.799Z,99751.59
2023-04-24T12:45:51.337Z,99732.56
2023-04-24T12:50:53.345Z,99739.34
2023-04-24T12:55:55.496Z,99754.09
2023-04-24T13:00:58.879Z,99745.53
2023-04-24T13:06:01.150Z,99752.19
2023-04-24T13:11:03.526Z,99759.00
2023-04-24T13:16:07.535Z,99750.97
2023-04-24T13:21:09.950Z,99737.53
2023-04-24T13:26:12.176Z,99744.09
2023-04-24T13:31:15.794Z,99747.78
2023-04-24T13:36:18.110Z,99733.13
2023-04-24T13:41:20.234Z,99721.25
2023-04-24T13:46:23.522Z,99722.59
2023-04-24T13:51:27.155Z,99718.50
2023-04-24T13:56:29.018Z,99739.34
2023-04-24T14:01:32.559Z,99726.69
2023-04-24T14:06:35.081Z,99738.72
2023-04-24T14:11:36.957Z,99734.84
2023-04-24T14:16:40.653Z,99744.66
2023-04-24T14:21:42.908Z,99738.69
2023-04-24T14:26:45.094Z,99733.16
2023-04-24T14:31:48.466Z,99740.13
2023-04-24T14:36:50.817Z,99746.44
2023-04-24T14:41:53.048Z,99757.31
2023-04-24T14:46:56.202Z,99754.91
2023-04-24T14:51:57.928Z,99762.97
2023-04-24T14:56:59.725Z,99748.72
2023-04-24T15:02:15.426Z,99769.25
2023-04-24T15:07:19.761Z,99771.47
2023-04-24T15:12:22.645Z,99760.38
2023-04-24T15:17:26.172Z,99759.91
2023-04-24T15:22:28.193Z,99766.34
2023-04-24T15:27:40.699Z,99761.06
2023-04-24T15:32:44.245Z,99764.78
2023-04-24T15:37:46.583Z,99762.59
2023-04-24T15:42:48.690Z,99762.56
2023-04-24T15:47:52.325Z,99774.50
2023-04-24T15:52:54.581Z,99780.94
2023-04-24T15:57:56.721Z,99782.72
2023-04-24T16:03:00.625Z,99784.44
2023-04-24T16:08:03.317Z,99793.56
2023-04-24T16:13:05.537Z,99804.72
2023-04-24T16:18:08.718Z,99808.00
2023-04-24T16:23:10.915Z,99845.94
2023-04-24T16:28:13.053Z,99853.97
2023-04-24T16:33:16.597Z,99873.44
2023-04-24T16:38:18.715Z,99866.50
2023-04-24T16:43:20.882Z,99864.34
2023-04-24T16:48:24.251Z,99871.94
2023-04-24T16:53:26.549Z,99873.81
2023-04-24T16:58:28.660Z,99871.50
2023-04-24T17:03:31.922Z,99893.50
2023-04-24T17:08:34.474Z,99906.59
2023-04-24T17:13:36.683Z,99910.81
2023-04-24T17:18:40.479Z,99919.47
2023-04-24T17:23:42.629Z,99926.25
2023-04-24T17:28:44.802Z,99932.72
2023-04-24T17:33:49.026Z,99934.25
2023-04-24T17:38:51.182Z,99943.47
2023-04-24T17:43:53.065Z,99960.81
2023-04-24T17:48:56.665Z,99969.84
2023-04-24T17:53:58.801Z,99979.06
2023-04-24T17:59:00.561Z,99977.94
2023-04-24T18:04:04.327Z,99996.09
2023-04-24T18:09:07.263Z,100008.25
2023-04-24T18:14:09.393Z,100017.72
2023-04-24T18:19:12.860Z,100030.34
2023-04-24T18:24:15.243Z,100045.69
2023-04-24T18:29:16.981Z,100047.13
2023-04-24T18:34:20.468Z,100057.16
2023-04-24T18:39:23.160Z,100062.84
2023-04-24T18:44:25.409Z,100084.41
2023-04-24T18:49:28.860Z,100082.91
2023-04-24T18:54:31.184Z,100090.94
2023-04-24T18:59:33.302Z,100092.75
2023-04-24T19:04:36.559Z,100093.63
2023-04-24T19:09:39.299Z,100107.66
2023-04-24T19:14:41.679Z,100107.81
2023-04-24T19:19:44.778Z,100123.75
2023-04-24T19:24:47.258Z,100123.91
2023-04-24T19:29:49.386Z,100134.84
2023-04-24T19:34:52.515Z,100140.31
2023-04-24T19:39:54.834Z,100137.78
2023-04-24T19:44:56.989Z,100129.19
2023-04-24T19:50:00.516Z,100131.19
2023-04-24T19:55:02.971Z,100133.88
2023-04-24T20:00:05.888Z,100125.34
2023-04-24T20:05:10.085Z,100132.50
2023-04-24T20:10:12.163Z,100122.06
2023-04-24T20:15:14.325Z,100122.19
2023-04-24T20:20:17.487Z,100129.44
2023-04-24T20:25:19.683Z,100113.66
2023-04-24T20:30:21.998Z,100113.72
2023-04-24T20:35:25.622Z,100125.94
2023-04-24T20:40:28.728Z,100124.09
2023-04-24T20:45:31.470Z,100124.09
2023-04-24T20:50:35.144Z,100123.25
2023-04-24T20:55:37.105Z,100129.44
2023-04-24T21:00:39.901Z,100126.97
2023-04-24T21:05:43.872Z,100123.72
2023-04-24T21:10:46.829Z,100122.81
2023-04-24T21:15:49.326Z,100119.19
2023-04-24T21:20:53.064Z,100125.38
2023-04-24T21:25:55.827Z,100134.38
2023-04-24T21:30:58.202Z,100123.91
2023-04-24T21:36:01.975Z,100119.41
2023-04-24T21:41:04.084Z,100117.56
2023-04-24T21:46:06.320Z,100122.09
2023-04-24T21:51:09.836Z,100117.78
2023-04-24T21:56:12.647Z,100126.72
2023-04-24T22:01:14.728Z,100124.16
2023-04-24T22:06:18.012Z,100117.16
2023-04-24T22:11:26.671Z,100117.19
2023-04-24T22:16:31.180Z,100108.38
2023-04-24T22:21:35.036Z,100122.56
2023-04-24T22:26:36.952Z,100134.09
2023-04-24T22:31:39.142Z,100131.44
2023-04-24T22:36:42.979Z,100127.75
2023-04-24T22:41:44.877Z,100134.84
2023-04-24T22:46:46.842Z,100133.03
2023-04-24T22:51:49.945Z,100140.88
2023-04-24T22:56:52.158Z,100132.88
2023-04-24T23:01:54.078Z,100128.41
2023-04-24T23:06:57.615Z,100131.78
2023-04-24T23:12:00.026Z,100135.25
2023-04-24T23:17:02.596Z,100132.47
2023-04-24T23:22:06.112Z,100126.19
2023-04-24T23:27:07.974Z,100117.41
2023-04-24T23:32:10.022Z,100108.53
2023-04-24T23:37:13.530Z,100126.22
2023-04-24T23:42:15.294Z,100114.66
2023-04-24T23:47:17.255Z,100118.13
2023-04-24T23:52:20.971Z,100108.44
2023-04-24T23:57:23.101Z,100116.56
